sensor_id;sensor_type;location;lat;lon;timestamp;temperature;humidity
14079;DHT22;7115;50.150;8.568;2023-07-20T00:02:24;21.20;82.80
14079;DHT22;7115;50.150;8.568;2023-07-20T00:04:51;21.10;83.00
14079;DHT22;7115;50.150;8.568;2023-07-20T00:07:18;21.10;83.30
14079;DHT22;7115;50.150;8.568;2023-07-20T00:09:45;21.00;83.60
14079;DHT22;7115;50.150;8.568;2023-07-20T00:12:14;20.90;83.80
14079;DHT22;7115;50.150;8.568;2023-07-20T00:14:40;20.80;84.10
14079;DHT22;7115;50.150;8.568;2023-07-20T00:17:07;20.70;84.30
14079;DHT22;7115;50.150;8.568;2023-07-20T00:19:34;20.70;84.50
14079;DHT22;7115;50.150;8.568;2023-07-20T00:22:01;20.60;84.80
14079;DHT22;7115;50.150;8.568;2023-07-20T00:24:28;20.50;85.00
14079;DHT22;7115;50.150;8.568;2023-07-20T00:26:55;20.50;85.30
14079;DHT22;7115;50.150;8.568;2023-07-20T00:29:23;20.40;85.60
14079;DHT22;7115;50.150;8.568;2023-07-20T00:31:50;20.30;85.90
14079;DHT22;7115;50.150;8.568;2023-07-20T00:34:18;20.20;86.10
14079;DHT22;7115;50.150;8.568;2023-07-20T00:36:44;20.20;86.40
14079;DHT22;7115;50.150;8.568;2023-07-20T00:39:11;20.20;86.60
14079;DHT22;7115;50.150;8.568;2023-07-20T00:41:38;20.20;86.80
14079;DHT22;7115;50.150;8.568;2023-07-20T00:44:05;20.20;86.80
14079;DHT22;7115;50.150;8.568;2023-07-20T00:46:33;20.20;87.00
14079;DHT22;7115;50.150;8.568;2023-07-20T00:49:00;20.10;87.10
14079;DHT22;7115;50.150;8.568;2023-07-20T00:51:28;20.00;87.40
14079;DHT22;7115;50.150;8.568;2023-07-20T00:53:55;20.00;87.50
14079;DHT22;7115;50.150;8.568;2023-07-20T00:56:22;19.90;87.70
14079;DHT22;7115;50.150;8.568;2023-07-20T00:58:50;19.90;88.00
14079;DHT22;7115;50.150;8.568;2023-07-20T01:01:17;19.80;88.20
14079;DHT22;7115;50.150;8.568;2023-07-20T01:03:45;19.70;88.40
14079;DHT22;7115;50.150;8.568;2023-07-20T01:06:23;19.70;88.80
14079;DHT22;7115;50.150;8.568;2023-07-20T01:08:57;19.60;89.00
14079;DHT22;7115;50.150;8.568;2023-07-20T01:11:33;19.60;89.20
14079;DHT22;7115;50.150;8.568;2023-07-20T01:14:03;19.50;89.50
14079;DHT22;7115;50.150;8.568;2023-07-20T01:16:29;19.50;89.70
14079;DHT22;7115;50.150;8.568;2023-07-20T01:18:58;19.50;89.90
14079;DHT22;7115;50.150;8.568;2023-07-20T01:21:31;19.40;90.00
14079;DHT22;7115;50.150;8.568;2023-07-20T01:24:22;19.40;90.10
14079;DHT22;7115;50.150;8.568;2023-07-20T01:30:02;19.40;90.40
14079;DHT22;7115;50.150;8.568;2023-07-20T01:32:33;19.30;90.40
14079;DHT22;7115;50.150;8.568;2023-07-20T01:35:02;19.30;90.50
14079;DHT22;7115;50.150;8.568;2023-07-20T01:37:30;19.30;90.60
14079;DHT22;7115;50.150;8.568;2023-07-20T01:39:59;19.20;90.80
14079;DHT22;7115;50.150;8.568;2023-07-20T01:42:26;19.20;90.80
14079;DHT22;7115;50.150;8.568;2023-07-20T01:44:53;19.20;90.90
14079;DHT22;7115;50.150;8.568;2023-07-20T01:47:20;19.30;90.90
14079;DHT22;7115;50.150;8.568;2023-07-20T01:49:48;19.20;90.90
14079;DHT22;7115;50.150;8.568;2023-07-20T01:52:15;19.20;91.00
14079;DHT22;7115;50.150;8.568;2023-07-20T01:54:42;19.20;91.10
14079;DHT22;7115;50.150;8.568;2023-07-20T01:57:09;19.10;91.10
14079;DHT22;7115;50.150;8.568;2023-07-20T01:59:36;19.10;91.20
14079;DHT22;7115;50.150;8.568;2023-07-20T02:02:03;19.10;91.30
14079;DHT22;7115;50.150;8.568;2023-07-20T02:04:30;19.10;91.40
14079;DHT22;7115;50.150;8.568;2023-07-20T02:06:58;19.00;91.40
14079;DHT22;7115;50.150;8.568;2023-07-20T02:09:25;18.90;91.50
14079;DHT22;7115;50.150;8.568;2023-07-20T02:11:52;18.90;91.70
14079;DHT22;7115;50.150;8.568;2023-07-20T02:14:19;18.90;91.70
14079;DHT22;7115;50.150;8.568;2023-07-20T02:16:46;18.90;91.70
14079;DHT22;7115;50.150;8.568;2023-07-20T02:19:14;18.90;91.80
14079;DHT22;7115;50.150;8.568;2023-07-20T02:21:41;18.90;91.80
14079;DHT22;7115;50.150;8.568;2023-07-20T02:24:09;18.80;91.90
14079;DHT22;7115;50.150;8.568;2023-07-20T02:26:36;18.90;92.00
14079;DHT22;7115;50.150;8.568;2023-07-20T02:29:03;18.80;92.00
14079;DHT22;7115;50.150;8.568;2023-07-20T02:31:31;18.80;92.10
14079;DHT22;7115;50.150;8.568;2023-07-20T02:33:58;18.70;92.10
14079;DHT22;7115;50.150;8.568;2023-07-20T02:36:25;18.70;92.20
14079;DHT22;7115;50.150;8.568;2023-07-20T02:38:52;18.60;92.20
14079;DHT22;7115;50.150;8.568;2023-07-20T02:41:20;18.70;92.40
14079;DHT22;7115;50.150;8.568;2023-07-20T02:43:48;18.70;92.40
14079;DHT22;7115;50.150;8.568;2023-07-20T02:46:15;18.60;92.40
14079;DHT22;7115;50.150;8.568;2023-07-20T02:48:41;18.60;92.50
14079;DHT22;7115;50.150;8.568;2023-07-20T02:51:09;18.60;92.60
14079;DHT22;7115;50.150;8.568;2023-07-20T02:53:36;18.60;92.70
14079;DHT22;7115;50.150;8.568;2023-07-20T02:56:03;18.60;92.70
14079;DHT22;7115;50.150;8.568;2023-07-20T02:58:33;18.60;92.70
14079;DHT22;7115;50.150;8.568;2023-07-20T03:01:03;18.60;92.80
14079;DHT22;7115;50.150;8.568;2023-07-20T03:03:30;18.50;92.80
14079;DHT22;7115;50.150;8.568;2023-07-20T03:05:57;18.50;92.80
14079;DHT22;7115;50.150;8.568;2023-07-20T03:08:24;18.50;92.90
14079;DHT22;7115;50.150;8.568;2023-07-20T03:10:51;18.50;92.90
14079;DHT22;7115;50.150;8.568;2023-07-20T03:13:17;18.50;93.00
14079;DHT22;7115;50.150;8.568;2023-07-20T03:15:46;18.50;93.00
14079;DHT22;7115;50.150;8.568;2023-07-20T03:18:12;18.50;93.00
14079;DHT22;7115;50.150;8.568;2023-07-20T03:20:39;18.50;93.00
14079;DHT22;7115;50.150;8.568;2023-07-20T03:23:06;18.50;93.00
14079;DHT22;7115;50.150;8.568;2023-07-20T03:25:33;18.50;93.00
14079;DHT22;7115;50.150;8.568;2023-07-20T03:28:00;18.50;93.10
14079;DHT22;7115;50.150;8.568;2023-07-20T03:30:27;18.50;93.10
14079;DHT22;7115;50.150;8.568;2023-07-20T03:32:55;18.60;93.10
14079;DHT22;7115;50.150;8.568;2023-07-20T03:35:22;18.60;93.10
14079;DHT22;7115;50.150;8.568;2023-07-20T03:37:50;18.70;93.10
14079;DHT22;7115;50.150;8.568;2023-07-20T03:40:16;18.70;93.10
14079;DHT22;7115;50.150;8.568;2023-07-20T03:42:43;18.70;93.10
14079;DHT22;7115;50.150;8.568;2023-07-20T03:45:10;18.70;93.10
14079;DHT22;7115;50.150;8.568;2023-07-20T03:47:37;18.70;93.10
14079;DHT22;7115;50.150;8.568;2023-07-20T03:50:07;18.70;93.20
14079;DHT22;7115;50.150;8.568;2023-07-20T03:52:35;18.70;93.20
14079;DHT22;7115;50.150;8.568;2023-07-20T03:55:02;18.60;93.20
14079;DHT22;7115;50.150;8.568;2023-07-20T03:57:28;18.60;93.30
14079;DHT22;7115;50.150;8.568;2023-07-20T03:59:55;18.50;93.30
14079;DHT22;7115;50.150;8.568;2023-07-20T04:02:22;18.50;93.30
14079;DHT22;7115;50.150;8.568;2023-07-20T04:04:49;18.50;93.40
14079;DHT22;7115;50.150;8.568;2023-07-20T04:07:18;18.50;93.50
14079;DHT22;7115;50.150;8.568;2023-07-20T04:09:44;18.50;93.50
14079;DHT22;7115;50.150;8.568;2023-07-20T04:12:11;18.50;93.50
14079;DHT22;7115;50.150;8.568;2023-07-20T04:14:38;18.50;93.60
14079;DHT22;7115;50.150;8.568;2023-07-20T04:17:05;18.50;93.70
14079;DHT22;7115;50.150;8.568;2023-07-20T04:19:32;18.40;93.70
14079;DHT22;7115;50.150;8.568;2023-07-20T04:21:59;18.40;93.80
14079;DHT22;7115;50.150;8.568;2023-07-20T04:24:27;18.40;93.80
14079;DHT22;7115;50.150;8.568;2023-07-20T04:26:54;18.40;93.90
14079;DHT22;7115;50.150;8.568;2023-07-20T04:29:20;18.40;94.00
14079;DHT22;7115;50.150;8.568;2023-07-20T04:31:47;18.40;94.00
14079;DHT22;7115;50.150;8.568;2023-07-20T04:34:14;18.40;94.00
14079;DHT22;7115;50.150;8.568;2023-07-20T04:36:41;18.40;94.00
14079;DHT22;7115;50.150;8.568;2023-07-20T04:39:10;18.40;94.10
14079;DHT22;7115;50.150;8.568;2023-07-20T04:41:53;18.30;94.10
14079;DHT22;7115;50.150;8.568;2023-07-20T04:44:19;18.30;94.10
14079;DHT22;7115;50.150;8.568;2023-07-20T04:46:46;18.30;94.10
14079;DHT22;7115;50.150;8.568;2023-07-20T04:49:13;18.30;94.10
14079;DHT22;7115;50.150;8.568;2023-07-20T04:51:40;18.30;94.20
14079;DHT22;7115;50.150;8.568;2023-07-20T04:54:07;18.40;94.20
14079;DHT22;7115;50.150;8.568;2023-07-20T04:56:34;18.40;94.30
14079;DHT22;7115;50.150;8.568;2023-07-20T04:59:02;18.40;94.20
14079;DHT22;7115;50.150;8.568;2023-07-20T05:01:29;18.40;94.30
14079;DHT22;7115;50.150;8.568;2023-07-20T05:03:56;18.30;94.30
14079;DHT22;7115;50.150;8.568;2023-07-20T05:06:23;18.30;94.30
14079;DHT22;7115;50.150;8.568;2023-07-20T05:08:50;18.30;94.40
14079;DHT22;7115;50.150;8.568;2023-07-20T05:11:17;18.30;94.40
14079;DHT22;7115;50.150;8.568;2023-07-20T05:13:44;18.30;94.40
14079;DHT22;7115;50.150;8.568;2023-07-20T05:16:12;18.40;94.40
14079;DHT22;7115;50.150;8.568;2023-07-20T05:18:39;18.40;94.40
14079;DHT22;7115;50.150;8.568;2023-07-20T05:21:06;18.40;94.40
14079;DHT22;7115;50.150;8.568;2023-07-20T05:23:33;18.40;94.50
14079;DHT22;7115;50.150;8.568;2023-07-20T05:26:00;18.40;94.50
14079;DHT22;7115;50.150;8.568;2023-07-20T05:28:27;18.50;94.50
14079;DHT22;7115;50.150;8.568;2023-07-20T05:30:54;18.50;94.70
14079;DHT22;7115;50.150;8.568;2023-07-20T05:33:23;18.50;94.60
14079;DHT22;7115;50.150;8.568;2023-07-20T05:35:49;18.50;94.70
14079;DHT22;7115;50.150;8.568;2023-07-20T05:38:16;18.50;94.70
14079;DHT22;7115;50.150;8.568;2023-07-20T05:40:44;18.50;94.80
14079;DHT22;7115;50.150;8.568;2023-07-20T05:43:11;18.50;94.80
14079;DHT22;7115;50.150;8.568;2023-07-20T05:45:41;18.60;94.90
14079;DHT22;7115;50.150;8.568;2023-07-20T05:48:08;18.60;94.90
14079;DHT22;7115;50.150;8.568;2023-07-20T05:50:41;18.70;94.90
14079;DHT22;7115;50.150;8.568;2023-07-20T05:53:09;18.70;94.90
14079;DHT22;7115;50.150;8.568;2023-07-20T05:55:35;18.80;94.90
14079;DHT22;7115;50.150;8.568;2023-07-20T05:58:02;18.80;94.90
14079;DHT22;7115;50.150;8.568;2023-07-20T06:00:31;18.90;94.90
14079;DHT22;7115;50.150;8.568;2023-07-20T06:02:58;18.90;94.80
14079;DHT22;7115;50.150;8.568;2023-07-20T06:05:25;19.00;94.70
14079;DHT22;7115;50.150;8.568;2023-07-20T06:07:56;19.10;94.70
14079;DHT22;7115;50.150;8.568;2023-07-20T06:10:25;19.20;94.70
14079;DHT22;7115;50.150;8.568;2023-07-20T06:12:51;19.10;94.60
14079;DHT22;7115;50.150;8.568;2023-07-20T06:15:26;19.20;94.60
14079;DHT22;7115;50.150;8.568;2023-07-20T06:17:54;19.10;94.60
14079;DHT22;7115;50.150;8.568;2023-07-20T06:20:22;19.20;94.60
14079;DHT22;7115;50.150;8.568;2023-07-20T06:22:49;19.20;94.60
14079;DHT22;7115;50.150;8.568;2023-07-20T06:25:17;19.30;94.70
14079;DHT22;7115;50.150;8.568;2023-07-20T06:27:44;19.40;94.60
14079;DHT22;7115;50.150;8.568;2023-07-20T06:30:11;19.50;94.50
14079;DHT22;7115;50.150;8.568;2023-07-20T06:32:39;19.60;94.50
14079;DHT22;7115;50.150;8.568;2023-07-20T06:35:06;19.60;94.40
14079;DHT22;7115;50.150;8.568;2023-07-20T06:37:35;19.70;94.30
14079;DHT22;7115;50.150;8.568;2023-07-20T06:40:02;19.80;94.20
14079;DHT22;7115;50.150;8.568;2023-07-20T06:42:34;19.80;94.20
14079;DHT22;7115;50.150;8.568;2023-07-20T06:45:05;19.90;94.20
14079;DHT22;7115;50.150;8.568;2023-07-20T06:47:32;20.00;94.10
14079;DHT22;7115;50.150;8.568;2023-07-20T06:49:59;20.00;94.00
14079;DHT22;7115;50.150;8.568;2023-07-20T06:52:26;20.10;94.00
14079;DHT22;7115;50.150;8.568;2023-07-20T06:54:53;20.10;93.90
14079;DHT22;7115;50.150;8.568;2023-07-20T06:57:19;20.30;93.80
14079;DHT22;7115;50.150;8.568;2023-07-20T06:59:48;20.40;93.70
14079;DHT22;7115;50.150;8.568;2023-07-20T07:02:15;20.50;93.70
14079;DHT22;7115;50.150;8.568;2023-07-20T07:04:42;20.60;93.60
14079;DHT22;7115;50.150;8.568;2023-07-20T07:07:09;20.70;93.50
14079;DHT22;7115;50.150;8.568;2023-07-20T07:09:36;20.80;93.40
14079;DHT22;7115;50.150;8.568;2023-07-20T07:12:05;21.00;93.30
14079;DHT22;7115;50.150;8.568;2023-07-20T07:14:32;21.00;93.20
14079;DHT22;7115;50.150;8.568;2023-07-20T07:17:00;21.10;93.10
14079;DHT22;7115;50.150;8.568;2023-07-20T07:19:31;21.10;93.10
14079;DHT22;7115;50.150;8.568;2023-07-20T07:21:58;21.20;93.10
14079;DHT22;7115;50.150;8.568;2023-07-20T07:24:26;21.30;93.00
14079;DHT22;7115;50.150;8.568;2023-07-20T07:26:55;21.30;92.90
14079;DHT22;7115;50.150;8.568;2023-07-20T07:29:22;21.40;92.80
14079;DHT22;7115;50.150;8.568;2023-07-20T07:31:49;21.40;92.70
14079;DHT22;7115;50.150;8.568;2023-07-20T07:34:17;21.60;92.70
14079;DHT22;7115;50.150;8.568;2023-07-20T07:36:44;21.70;92.60
14079;DHT22;7115;50.150;8.568;2023-07-20T07:39:11;21.90;92.40
14079;DHT22;7115;50.150;8.568;2023-07-20T07:41:41;22.00;92.10
14079;DHT22;7115;50.150;8.568;2023-07-20T07:44:08;22.10;91.90
14079;DHT22;7115;50.150;8.568;2023-07-20T07:46:35;22.30;91.80
14079;DHT22;7115;50.150;8.568;2023-07-20T07:49:02;22.20;91.60
14079;DHT22;7115;50.150;8.568;2023-07-20T07:51:30;22.30;91.60
14079;DHT22;7115;50.150;8.568;2023-07-20T07:53:57;22.40;91.50
14079;DHT22;7115;50.150;8.568;2023-07-20T07:56:24;22.50;91.30
14079;DHT22;7115;50.150;8.568;2023-07-20T07:58:51;22.70;91.20
14079;DHT22;7115;50.150;8.568;2023-07-20T08:01:18;22.80;90.90
14079;DHT22;7115;50.150;8.568;2023-07-20T08:03:47;22.90;90.70
14079;DHT22;7115;50.150;8.568;2023-07-20T08:06:14;22.90;90.50
14079;DHT22;7115;50.150;8.568;2023-07-20T08:08:43;22.90;90.50
14079;DHT22;7115;50.150;8.568;2023-07-20T08:11:10;22.80;90.40
14079;DHT22;7115;50.150;8.568;2023-07-20T08:13:38;22.90;90.30
14079;DHT22;7115;50.150;8.568;2023-07-20T08:16:05;22.80;90.30
14079;DHT22;7115;50.150;8.568;2023-07-20T08:18:32;22.90;90.40
14079;DHT22;7115;50.150;8.568;2023-07-20T08:20:59;23.00;90.30
14079;DHT22;7115;50.150;8.568;2023-07-20T08:23:26;23.10;90.10
14079;DHT22;7115;50.150;8.568;2023-07-20T08:25:55;23.30;89.70
14079;DHT22;7115;50.150;8.568;2023-07-20T08:28:22;23.40;89.00
14079;DHT22;7115;50.150;8.568;2023-07-20T08:30:49;23.50;88.60
14079;DHT22;7115;50.150;8.568;2023-07-20T08:33:18;23.60;88.20
14079;DHT22;7115;50.150;8.568;2023-07-20T08:35:46;23.80;87.90
14079;DHT22;7115;50.150;8.568;2023-07-20T08:38:14;23.90;87.70
14079;DHT22;7115;50.150;8.568;2023-07-20T08:40:43;23.90;87.30
14079;DHT22;7115;50.150;8.568;2023-07-20T08:43:13;23.90;87.10
14079;DHT22;7115;50.150;8.568;2023-07-20T08:45:40;23.90;86.90
14079;DHT22;7115;50.150;8.568;2023-07-20T08:48:08;23.90;86.40
14079;DHT22;7115;50.150;8.568;2023-07-20T08:50:35;23.90;86.20
14079;DHT22;7115;50.150;8.568;2023-07-20T08:53:02;23.80;86.20
14079;DHT22;7115;50.150;8.568;2023-07-20T08:55:30;23.70;86.30
14079;DHT22;7115;50.150;8.568;2023-07-20T08:57:59;23.70;86.50
14079;DHT22;7115;50.150;8.568;2023-07-20T09:00:28;23.60;86.50
14079;DHT22;7115;50.150;8.568;2023-07-20T09:02:57;23.50;86.30
14079;DHT22;7115;50.150;8.568;2023-07-20T09:05:24;23.30;86.10
14079;DHT22;7115;50.150;8.568;2023-07-20T09:07:53;23.20;86.50
14079;DHT22;7115;50.150;8.568;2023-07-20T09:10:21;23.10;86.70
14079;DHT22;7115;50.150;8.568;2023-07-20T09:12:48;23.10;86.80
14079;DHT22;7115;50.150;8.568;2023-07-20T09:15:15;23.20;86.70
14079;DHT22;7115;50.150;8.568;2023-07-20T09:17:47;23.40;86.60
14079;DHT22;7115;50.150;8.568;2023-07-20T09:20:17;23.50;86.40
14079;DHT22;7115;50.150;8.568;2023-07-20T09:22:48;23.60;86.10
14079;DHT22;7115;50.150;8.568;2023-07-20T09:25:18;23.50;85.60
14079;DHT22;7115;50.150;8.568;2023-07-20T09:27:49;23.40;85.50
14079;DHT22;7115;50.150;8.568;2023-07-20T09:30:18;23.30;85.60
14079;DHT22;7115;50.150;8.568;2023-07-20T09:32:48;23.20;85.50
14079;DHT22;7115;50.150;8.568;2023-07-20T09:35:21;23.10;85.60
14079;DHT22;7115;50.150;8.568;2023-07-20T09:37:57;23.00;85.80
14079;DHT22;7115;50.150;8.568;2023-07-20T09:40:27;22.80;85.90
14079;DHT22;7115;50.150;8.568;2023-07-20T09:42:59;22.70;86.30
14079;DHT22;7115;50.150;8.568;2023-07-20T09:45:34;22.70;86.50
14079;DHT22;7115;50.150;8.568;2023-07-20T09:48:07;22.80;86.50
14079;DHT22;7115;50.150;8.568;2023-07-20T09:50:39;22.90;86.50
14079;DHT22;7115;50.150;8.568;2023-07-20T09:53:11;22.90;86.40
14079;DHT22;7115;50.150;8.568;2023-07-20T09:55:39;23.10;86.30
14079;DHT22;7115;50.150;8.568;2023-07-20T09:58:08;23.20;86.00
14079;DHT22;7115;50.150;8.568;2023-07-20T10:00:37;23.30;85.60
14079;DHT22;7115;50.150;8.568;2023-07-20T10:03:10;23.50;85.50
14079;DHT22;7115;50.150;8.568;2023-07-20T10:05:40;23.70;85.00
14079;DHT22;7115;50.150;8.568;2023-07-20T10:08:11;23.80;84.50
14079;DHT22;7115;50.150;8.568;2023-07-20T10:10:42;24.00;84.10
14079;DHT22;7115;50.150;8.568;2023-07-20T10:13:15;23.80;83.80
14079;DHT22;7115;50.150;8.568;2023-07-20T10:15:50;23.70;83.70
14079;DHT22;7115;50.150;8.568;2023-07-20T10:18:27;23.60;83.70
14079;DHT22;7115;50.150;8.568;2023-07-20T10:20:56;23.40;83.80
14079;DHT22;7115;50.150;8.568;2023-07-20T10:23:29;23.40;84.20
14079;DHT22;7115;50.150;8.568;2023-07-20T10:25:57;23.20;84.30
14079;DHT22;7115;50.150;8.568;2023-07-20T10:28:27;23.10;84.50
14079;DHT22;7115;50.150;8.568;2023-07-20T10:30:54;23.10;84.60
14079;DHT22;7115;50.150;8.568;2023-07-20T10:33:22;23.10;84.90
14079;DHT22;7115;50.150;8.568;2023-07-20T10:35:51;23.30;85.10
14079;DHT22;7115;50.150;8.568;2023-07-20T10:38:18;23.60;84.80
14079;DHT22;7115;50.150;8.568;2023-07-20T10:40:54;23.70;84.10
14079;DHT22;7115;50.150;8.568;2023-07-20T10:43:22;23.90;84.00
14079;DHT22;7115;50.150;8.568;2023-07-20T10:45:50;24.10;83.60
14079;DHT22;7115;50.150;8.568;2023-07-20T10:48:19;24.40;83.20
14079;DHT22;7115;50.150;8.568;2023-07-20T10:51:11;24.60;82.40
14079;DHT22;7115;50.150;8.568;2023-07-20T10:53:38;24.60;81.30
14079;DHT22;7115;50.150;8.568;2023-07-20T10:56:09;24.60;81.30
14079;DHT22;7115;50.150;8.568;2023-07-20T10:58:37;24.80;81.00
14079;DHT22;7115;50.150;8.568;2023-07-20T11:01:04;24.90;80.20
14079;DHT22;7115;50.150;8.568;2023-07-20T11:03:34;24.80;79.70
14079;DHT22;7115;50.150;8.568;2023-07-20T11:06:31;24.80;79.60
14079;DHT22;7115;50.150;8.568;2023-07-20T11:09:06;24.90;79.30
14079;DHT22;7115;50.150;8.568;2023-07-20T11:11:43;24.90;79.10
14079;DHT22;7115;50.150;8.568;2023-07-20T11:14:20;24.90;79.20
14079;DHT22;7115;50.150;8.568;2023-07-20T11:16:48;24.80;78.60
14079;DHT22;7115;50.150;8.568;2023-07-20T11:19:18;24.80;78.70
14079;DHT22;7115;50.150;8.568;2023-07-20T11:21:52;24.90;78.50
14079;DHT22;7115;50.150;8.568;2023-07-20T11:24:29;25.00;78.10
14079;DHT22;7115;50.150;8.568;2023-07-20T11:26:57;25.10;77.70
14079;DHT22;7115;50.150;8.568;2023-07-20T11:29:24;25.20;77.40
14079;DHT22;7115;50.150;8.568;2023-07-20T11:31:56;25.30;77.20
14079;DHT22;7115;50.150;8.568;2023-07-20T11:34:25;25.40;77.10
14079;DHT22;7115;50.150;8.568;2023-07-20T11:36:55;25.40;77.00
14079;DHT22;7115;50.150;8.568;2023-07-20T11:39:25;25.30;76.60
14079;DHT22;7115;50.150;8.568;2023-07-20T11:41:54;25.10;76.60
14079;DHT22;7115;50.150;8.568;2023-07-20T11:44:22;25.00;76.40
14079;DHT22;7115;50.150;8.568;2023-07-20T11:47:00;24.80;76.60
14079;DHT22;7115;50.150;8.568;2023-07-20T11:49:28;24.80;77.00
14079;DHT22;7115;50.150;8.568;2023-07-20T11:51:58;24.80;77.00
14079;DHT22;7115;50.150;8.568;2023-07-20T11:54:26;24.70;77.10
14079;DHT22;7115;50.150;8.568;2023-07-20T11:56:54;24.60;77.20
14079;DHT22;7115;50.150;8.568;2023-07-20T11:59:21;24.50;77.40
14079;DHT22;7115;50.150;8.568;2023-07-20T12:01:48;24.40;77.50
14079;DHT22;7115;50.150;8.568;2023-07-20T12:04:15;24.50;77.50
14079;DHT22;7115;50.150;8.568;2023-07-20T12:06:42;24.50;77.40
14079;DHT22;7115;50.150;8.568;2023-07-20T12:09:14;24.60;77.20
14079;DHT22;7115;50.150;8.568;2023-07-20T12:11:44;24.60;76.70
14079;DHT22;7115;50.150;8.568;2023-07-20T12:14:14;24.60;76.70
14079;DHT22;7115;50.150;8.568;2023-07-20T12:16:44;24.60;76.50
14079;DHT22;7115;50.150;8.568;2023-07-20T12:19:12;24.60;76.60
14079;DHT22;7115;50.150;8.568;2023-07-20T12:21:41;24.80;76.60
14079;DHT22;7115;50.150;8.568;2023-07-20T12:24:10;25.00;76.10
14079;DHT22;7115;50.150;8.568;2023-07-20T12:26:39;25.20;75.60
14079;DHT22;7115;50.150;8.568;2023-07-20T12:29:06;25.30;75.30
14079;DHT22;7115;50.150;8.568;2023-07-20T12:31:36;25.40;75.00
14079;DHT22;7115;50.150;8.568;2023-07-20T12:34:03;25.40;74.60
14079;DHT22;7115;50.150;8.568;2023-07-20T12:36:30;25.20;74.30
14079;DHT22;7115;50.150;8.568;2023-07-20T12:38:58;25.10;74.40
14079;DHT22;7115;50.150;8.568;2023-07-20T12:41:25;25.00;74.30
14079;DHT22;7115;50.150;8.568;2023-07-20T12:43:53;24.90;74.20
14079;DHT22;7115;50.150;8.568;2023-07-20T12:46:20;24.80;74.10
14079;DHT22;7115;50.150;8.568;2023-07-20T12:48:47;24.70;74.10
14079;DHT22;7115;50.150;8.568;2023-07-20T12:51:16;24.60;74.10
14079;DHT22;7115;50.150;8.568;2023-07-20T12:53:44;24.60;74.40
14079;DHT22;7115;50.150;8.568;2023-07-20T12:56:11;24.70;74.40
14079;DHT22;7115;50.150;8.568;2023-07-20T12:58:40;24.70;74.40
14079;DHT22;7115;50.150;8.568;2023-07-20T13:01:09;24.70;74.40
14079;DHT22;7115;50.150;8.568;2023-07-20T13:03:36;24.70;74.40
14079;DHT22;7115;50.150;8.568;2023-07-20T13:06:19;24.80;74.20
14079;DHT22;7115;50.150;8.568;2023-07-20T13:08:49;24.90;74.00
14079;DHT22;7115;50.150;8.568;2023-07-20T13:11:19;24.90;73.70
14079;DHT22;7115;50.150;8.568;2023-07-20T13:13:46;25.00;73.40
14079;DHT22;7115;50.150;8.568;2023-07-20T13:16:14;25.10;73.50
14079;DHT22;7115;50.150;8.568;2023-07-20T13:18:41;25.10;73.30
14079;DHT22;7115;50.150;8.568;2023-07-20T13:21:08;25.10;73.10
14079;DHT22;7115;50.150;8.568;2023-07-20T13:23:39;25.10;72.90
14079;DHT22;7115;50.150;8.568;2023-07-20T13:26:05;25.10;72.40
14079;DHT22;7115;50.150;8.568;2023-07-20T13:28:34;25.20;72.00
14079;DHT22;7115;50.150;8.568;2023-07-20T13:31:01;25.20;71.50
14079;DHT22;7115;50.150;8.568;2023-07-20T13:33:30;25.30;71.30
14079;DHT22;7115;50.150;8.568;2023-07-20T13:36:01;25.30;70.70
14079;DHT22;7115;50.150;8.568;2023-07-20T13:38:34;25.30;70.50
14079;DHT22;7115;50.150;8.568;2023-07-20T13:41:01;25.40;70.30
14079;DHT22;7115;50.150;8.568;2023-07-20T13:43:28;25.40;70.00
14079;DHT22;7115;50.150;8.568;2023-07-20T13:45:55;25.40;69.70
14079;DHT22;7115;50.150;8.568;2023-07-20T13:48:22;25.30;69.40
14079;DHT22;7115;50.150;8.568;2023-07-20T13:50:54;25.30;69.10
14079;DHT22;7115;50.150;8.568;2023-07-20T13:53:24;25.30;69.10
14079;DHT22;7115;50.150;8.568;2023-07-20T13:55:54;25.30;69.00
14079;DHT22;7115;50.150;8.568;2023-07-20T13:58:24;25.30;68.80
14079;DHT22;7115;50.150;8.568;2023-07-20T14:00:51;25.30;68.70
14079;DHT22;7115;50.150;8.568;2023-07-20T14:03:18;25.30;68.60
14079;DHT22;7115;50.150;8.568;2023-07-20T14:05:46;25.40;68.60
14079;DHT22;7115;50.150;8.568;2023-07-20T14:08:17;25.50;68.70
14079;DHT22;7115;50.150;8.568;2023-07-20T14:10:44;25.60;68.60
14079;DHT22;7115;50.150;8.568;2023-07-20T14:13:14;25.60;68.70
14079;DHT22;7115;50.150;8.568;2023-07-20T14:15:41;25.60;68.40
14079;DHT22;7115;50.150;8.568;2023-07-20T14:18:08;25.70;67.90
14079;DHT22;7115;50.150;8.568;2023-07-20T14:20:35;25.70;67.40
14079;DHT22;7115;50.150;8.568;2023-07-20T14:23:05;25.60;67.10
14079;DHT22;7115;50.150;8.568;2023-07-20T14:25:33;25.60;67.00
14079;DHT22;7115;50.150;8.568;2023-07-20T14:28:04;25.70;67.00
14079;DHT22;7115;50.150;8.568;2023-07-20T14:30:31;25.70;66.60
14079;DHT22;7115;50.150;8.568;2023-07-20T14:32:58;25.80;66.30
14079;DHT22;7115;50.150;8.568;2023-07-20T14:35:26;25.80;66.00
14079;DHT22;7115;50.150;8.568;2023-07-20T14:37:53;25.80;65.50
14079;DHT22;7115;50.150;8.568;2023-07-20T14:40:20;25.90;65.50
14079;DHT22;7115;50.150;8.568;2023-07-20T14:42:48;25.90;65.70
14079;DHT22;7115;50.150;8.568;2023-07-20T14:45:18;26.00;65.50
14079;DHT22;7115;50.150;8.568;2023-07-20T14:47:45;26.00;65.10
14079;DHT22;7115;50.150;8.568;2023-07-20T14:50:12;26.10;64.80
14079;DHT22;7115;50.150;8.568;2023-07-20T14:52:39;26.20;64.30
14079;DHT22;7115;50.150;8.568;2023-07-20T14:55:15;26.30;63.80
14079;DHT22;7115;50.150;8.568;2023-07-20T14:57:42;26.40;63.50
14079;DHT22;7115;50.150;8.568;2023-07-20T15:00:11;26.50;63.30
14079;DHT22;7115;50.150;8.568;2023-07-20T15:02:38;26.50;63.10
14079;DHT22;7115;50.150;8.568;2023-07-20T15:05:07;26.50;63.10
14079;DHT22;7115;50.150;8.568;2023-07-20T15:07:35;26.40;62.90
14079;DHT22;7115;50.150;8.568;2023-07-20T15:10:02;26.40;63.00
14079;DHT22;7115;50.150;8.568;2023-07-20T15:12:30;26.40;62.90
14079;DHT22;7115;50.150;8.568;2023-07-20T15:15:04;26.50;63.30
14079;DHT22;7115;50.150;8.568;2023-07-20T15:17:36;26.50;62.00
14079;DHT22;7115;50.150;8.568;2023-07-20T15:20:05;26.50;61.90
14079;DHT22;7115;50.150;8.568;2023-07-20T15:22:33;26.60;61.80
14079;DHT22;7115;50.150;8.568;2023-07-20T15:25:00;26.60;61.90
14079;DHT22;7115;50.150;8.568;2023-07-20T15:27:27;26.70;62.00
14079;DHT22;7115;50.150;8.568;2023-07-20T15:29:54;26.70;61.80
14079;DHT22;7115;50.150;8.568;2023-07-20T15:32:21;26.70;61.50
14079;DHT22;7115;50.150;8.568;2023-07-20T15:34:49;26.60;61.30
14079;DHT22;7115;50.150;8.568;2023-07-20T15:37:16;26.70;61.30
14079;DHT22;7115;50.150;8.568;2023-07-20T15:39:43;26.60;61.30
14079;DHT22;7115;50.150;8.568;2023-07-20T15:42:10;26.60;62.00
14079;DHT22;7115;50.150;8.568;2023-07-20T15:44:36;26.60;60.80
14079;DHT22;7115;50.150;8.568;2023-07-20T15:47:04;26.60;60.70
14079;DHT22;7115;50.150;8.568;2023-07-20T15:49:36;26.60;60.70
14079;DHT22;7115;50.150;8.568;2023-07-20T15:52:04;26.50;60.80
14079;DHT22;7115;50.150;8.568;2023-07-20T15:54:34;26.50;60.60
14079;DHT22;7115;50.150;8.568;2023-07-20T15:57:00;26.40;60.50